sensor_id;sensor_type;location;lat;lon;timestamp;P1;durP1;ratioP1;P2;durP2;ratioP2
26820;SDS011;37186;51.394;5.454;2022-11-10T00:01:50;3.90;;;3.80;;
26820;SDS011;37186;51.394;5.454;2022-11-10T00:04:50;3.83;;;3.73;;
26820;SDS011;37186;51.394;5.454;2022-11-10T00:07:51;4.00;;;3.90;;
26820;SDS011;37186;51.394;5.454;2022-11-10T00:10:51;4.10;;;4.00;;
26820;SDS011;37186;51.394;5.454;2022-11-10T00:13:58;3.90;;;3.80;;
26820;SDS011;37186;51.394;5.454;2022-11-10T00:17:17;4.00;;;3.90;;
26820;SDS011;37186;51.394;5.454;2022-11-10T00:20:18;3.70;;;3.60;;
26820;SDS011;37186;51.394;5.454;2022-11-10T00:23:18;3.90;;;3.80;;
26820;SDS011;37186;51.394;5.454;2022-11-10T00:26:19;3.73;;;3.63;;
26820;SDS011;37186;51.394;5.454;2022-11-10T00:29:20;4.00;;;3.90;;
26820;SDS011;37186;51.394;5.454;2022-11-10T00:32:21;3.73;;;3.63;;
26820;SDS011;37186;51.394;5.454;2022-11-10T00:35:22;3.87;;;3.77;;
26820;SDS011;37186;51.394;5.454;2022-11-10T00:38:22;3.80;;;3.70;;
26820;SDS011;37186;51.394;5.454;2022-11-10T00:41:23;3.63;;;3.53;;
26820;SDS011;37186;51.394;5.454;2022-11-10T00:44:23;3.70;;;3.60;;
26820;SDS011;37186;51.394;5.454;2022-11-10T00:47:24;3.60;;;3.50;;
26820;SDS011;37186;51.394;5.454;2022-11-10T00:50:24;3.70;;;3.60;;
26820;SDS011;37186;51.394;5.454;2022-11-10T00:53:25;3.57;;;3.47;;
26820;SDS011;37186;51.394;5.454;2022-11-10T00:56:25;3.90;;;3.80;;
26820;SDS011;37186;51.394;5.454;2022-11-10T00:59:26;3.80;;;3.70;;
26820;SDS011;37186;51.394;5.454;2022-11-10T01:02:27;3.60;;;3.50;;
26820;SDS011;37186;51.394;5.454;2022-11-10T01:05:28;3.70;;;3.60;;
26820;SDS011;37186;51.394;5.454;2022-11-10T01:08:29;3.70;;;3.60;;
26820;SDS011;37186;51.394;5.454;2022-11-10T01:11:29;3.80;;;3.70;;
26820;SDS011;37186;51.394;5.454;2022-11-10T01:14:30;3.80;;;3.70;;
26820;SDS011;37186;51.394;5.454;2022-11-10T01:17:30;3.80;;;3.70;;
26820;SDS011;37186;51.394;5.454;2022-11-10T01:20:32;4.00;;;3.90;;
26820;SDS011;37186;51.394;5.454;2022-11-10T01:23:33;3.70;;;3.60;;
26820;SDS011;37186;51.394;5.454;2022-11-10T01:26:34;3.80;;;3.70;;
26820;SDS011;37186;51.394;5.454;2022-11-10T01:29:34;3.90;;;3.80;;
26820;SDS011;37186;51.394;5.454;2022-11-10T01:32:35;3.80;;;3.70;;
26820;SDS011;37186;51.394;5.454;2022-11-10T01:35:35;3.80;;;3.70;;
26820;SDS011;37186;51.394;5.454;2022-11-10T01:38:37;3.77;;;3.67;;
26820;SDS011;37186;51.394;5.454;2022-11-10T01:41:39;3.87;;;3.77;;
26820;SDS011;37186;51.394;5.454;2022-11-10T01:44:40;4.00;;;3.90;;
26820;SDS011;37186;51.394;5.454;2022-11-10T01:47:41;3.80;;;3.70;;
26820;SDS011;37186;51.394;5.454;2022-11-10T01:50:41;4.00;;;3.90;;
26820;SDS011;37186;51.394;5.454;2022-11-10T01:53:46;3.70;;;3.60;;
26820;SDS011;37186;51.394;5.454;2022-11-10T01:56:52;4.00;;;3.90;;
26820;SDS011;37186;51.394;5.454;2022-11-10T01:59:57;3.87;;;3.77;;
26820;SDS011;37186;51.394;5.454;2022-11-10T02:06:37;3.60;;;3.50;;
26820;SDS011;37186;51.394;5.454;2022-11-10T02:09:39;3.77;;;3.67;;
26820;SDS011;37186;51.394;5.454;2022-11-10T02:12:40;3.87;;;3.77;;
26820;SDS011;37186;51.394;5.454;2022-11-10T02:15:41;3.60;;;3.50;;
26820;SDS011;37186;51.394;5.454;2022-11-10T02:18:42;3.80;;;3.70;;
26820;SDS011;37186;51.394;5.454;2022-11-10T02:21:42;3.80;;;3.70;;
26820;SDS011;37186;51.394;5.454;2022-11-10T02:24:43;3.87;;;3.77;;
26820;SDS011;37186;51.394;5.454;2022-11-10T02:27:43;3.80;;;3.70;;
26820;SDS011;37186;51.394;5.454;2022-11-10T02:30:44;3.90;;;3.80;;
26820;SDS011;37186;51.394;5.454;2022-11-10T02:33:44;3.83;;;3.73;;
26820;SDS011;37186;51.394;5.454;2022-11-10T02:36:45;3.80;;;3.70;;
26820;SDS011;37186;51.394;5.454;2022-11-10T02:39:45;4.03;;;3.93;;
26820;SDS011;37186;51.394;5.454;2022-11-10T02:42:46;3.70;;;3.60;;
26820;SDS011;37186;51.394;5.454;2022-11-10T02:45:46;3.80;;;3.70;;
26820;SDS011;37186;51.394;5.454;2022-11-10T02:48:47;3.80;;;3.70;;
26820;SDS011;37186;51.394;5.454;2022-11-10T02:51:47;3.90;;;3.80;;
26820;SDS011;37186;51.394;5.454;2022-11-10T02:54:48;3.80;;;3.70;;
26820;SDS011;37186;51.394;5.454;2022-11-10T02:57:48;3.80;;;3.70;;
26820;SDS011;37186;51.394;5.454;2022-11-10T03:00:49;3.67;;;3.57;;
26820;SDS011;37186;51.394;5.454;2022-11-10T03:03:49;3.87;;;3.77;;
26820;SDS011;37186;51.394;5.454;2022-11-10T03:06:50;3.90;;;3.80;;
26820;SDS011;37186;51.394;5.454;2022-11-10T03:09:50;4.00;;;3.90;;
26820;SDS011;37186;51.394;5.454;2022-11-10T03:12:58;3.80;;;3.70;;
26820;SDS011;37186;51.394;5.454;2022-11-10T03:16:00;4.00;;;3.90;;
26820;SDS011;37186;51.394;5.454;2022-11-10T03:19:01;4.00;;;3.90;;
26820;SDS011;37186;51.394;5.454;2022-11-10T03:22:01;3.80;;;3.70;;
26820;SDS011;37186;51.394;5.454;2022-11-10T03:25:02;3.90;;;3.80;;
26820;SDS011;37186;51.394;5.454;2022-11-10T03:28:03;3.80;;;3.70;;
26820;SDS011;37186;51.394;5.454;2022-11-10T03:31:04;4.00;;;3.90;;
26820;SDS011;37186;51.394;5.454;2022-11-10T03:34:04;4.20;;;4.10;;
26820;SDS011;37186;51.394;5.454;2022-11-10T03:37:05;4.20;;;4.10;;
26820;SDS011;37186;51.394;5.454;2022-11-10T03:40:05;4.20;;;4.10;;
26820;SDS011;37186;51.394;5.454;2022-11-10T03:43:07;4.33;;;4.23;;
26820;SDS011;37186;51.394;5.454;2022-11-10T03:46:10;4.10;;;4.00;;
26820;SDS011;37186;51.394;5.454;2022-11-10T03:49:10;4.20;;;4.10;;
26820;SDS011;37186;51.394;5.454;2022-11-10T03:52:11;4.20;;;4.10;;
26820;SDS011;37186;51.394;5.454;2022-11-10T03:55:13;4.20;;;4.10;;
26820;SDS011;37186;51.394;5.454;2022-11-10T03:58:15;4.27;;;4.17;;
26820;SDS011;37186;51.394;5.454;2022-11-10T04:01:16;4.10;;;4.00;;
26820;SDS011;37186;51.394;5.454;2022-11-10T04:04:16;4.10;;;4.00;;
26820;SDS011;37186;51.394;5.454;2022-11-10T04:07:35;4.20;;;4.10;;
26820;SDS011;37186;51.394;5.454;2022-11-10T04:10:55;4.50;;;4.40;;
26820;SDS011;37186;51.394;5.454;2022-11-10T04:13:55;4.20;;;4.10;;
26820;SDS011;37186;51.394;5.454;2022-11-10T04:17:14;4.20;;;4.10;;
26820;SDS011;37186;51.394;5.454;2022-11-10T04:20:15;4.20;;;4.10;;
26820;SDS011;37186;51.394;5.454;2022-11-10T04:23:16;4.20;;;4.10;;
26820;SDS011;37186;51.394;5.454;2022-11-10T04:26:26;4.10;;;4.00;;
26820;SDS011;37186;51.394;5.454;2022-11-10T04:29:29;4.43;;;4.33;;
26820;SDS011;37186;51.394;5.454;2022-11-10T04:32:30;4.10;;;4.00;;
26820;SDS011;37186;51.394;5.454;2022-11-10T04:35:30;4.10;;;4.00;;
26820;SDS011;37186;51.394;5.454;2022-11-10T04:38:31;4.30;;;4.20;;
26820;SDS011;37186;51.394;5.454;2022-11-10T04:41:32;4.40;;;4.30;;
26820;SDS011;37186;51.394;5.454;2022-11-10T04:44:32;4.03;;;3.93;;
26820;SDS011;37186;51.394;5.454;2022-11-10T04:47:33;4.10;;;4.00;;
26820;SDS011;37186;51.394;5.454;2022-11-10T04:50:34;4.20;;;4.10;;
26820;SDS011;37186;51.394;5.454;2022-11-10T04:53:34;4.40;;;4.30;;
26820;SDS011;37186;51.394;5.454;2022-11-10T04:56:35;4.20;;;4.10;;
26820;SDS011;37186;51.394;5.454;2022-11-10T04:59:36;4.43;;;4.33;;
26820;SDS011;37186;51.394;5.454;2022-11-10T05:02:36;4.10;;;4.00;;
26820;SDS011;37186;51.394;5.454;2022-11-10T05:05:37;4.30;;;4.20;;
26820;SDS011;37186;51.394;5.454;2022-11-10T05:08:38;4.37;;;4.27;;
26820;SDS011;37186;51.394;5.454;2022-11-10T05:11:39;4.13;;;4.03;;
26820;SDS011;37186;51.394;5.454;2022-11-10T05:14:40;4.17;;;4.07;;
26820;SDS011;37186;51.394;5.454;2022-11-10T05:17:40;4.50;;;4.40;;
26820;SDS011;37186;51.394;5.454;2022-11-10T05:20:41;4.57;;;4.47;;
26820;SDS011;37186;51.394;5.454;2022-11-10T05:23:41;4.50;;;4.40;;
26820;SDS011;37186;51.394;5.454;2022-11-10T05:26:43;4.30;;;4.20;;
26820;SDS011;37186;51.394;5.454;2022-11-10T05:29:43;4.30;;;4.20;;
26820;SDS011;37186;51.394;5.454;2022-11-10T05:32:44;4.77;;;4.67;;
26820;SDS011;37186;51.394;5.454;2022-11-10T05:35:44;4.40;;;4.30;;
26820;SDS011;37186;51.394;5.454;2022-11-10T05:38:47;4.60;;;4.50;;
26820;SDS011;37186;51.394;5.454;2022-11-10T05:41:47;4.53;;;4.43;;
26820;SDS011;37186;51.394;5.454;2022-11-10T05:44:48;4.70;;;4.60;;
26820;SDS011;37186;51.394;5.454;2022-11-10T05:47:48;4.30;;;4.20;;
26820;SDS011;37186;51.394;5.454;2022-11-10T05:50:49;4.30;;;4.20;;
26820;SDS011;37186;51.394;5.454;2022-11-10T05:53:50;4.60;;;4.50;;
26820;SDS011;37186;51.394;5.454;2022-11-10T05:56:50;4.50;;;4.40;;
26820;SDS011;37186;51.394;5.454;2022-11-10T05:59:51;4.67;;;4.57;;
26820;SDS011;37186;51.394;5.454;2022-11-10T06:02:55;4.50;;;4.40;;
26820;SDS011;37186;51.394;5.454;2022-11-10T06:06:04;4.70;;;4.60;;
26820;SDS011;37186;51.394;5.454;2022-11-10T06:09:04;4.47;;;4.37;;
26820;SDS011;37186;51.394;5.454;2022-11-10T06:12:05;4.60;;;4.50;;
26820;SDS011;37186;51.394;5.454;2022-11-10T06:15:06;4.47;;;4.37;;
26820;SDS011;37186;51.394;5.454;2022-11-10T06:18:09;4.50;;;4.40;;
26820;SDS011;37186;51.394;5.454;2022-11-10T06:21:09;4.57;;;4.47;;
26820;SDS011;37186;51.394;5.454;2022-11-10T06:24:10;4.20;;;4.10;;
26820;SDS011;37186;51.394;5.454;2022-11-10T06:27:10;4.23;;;4.13;;
26820;SDS011;37186;51.394;5.454;2022-11-10T06:30:11;4.30;;;4.20;;
26820;SDS011;37186;51.394;5.454;2022-11-10T06:33:12;4.20;;;4.10;;
26820;SDS011;37186;51.394;5.454;2022-11-10T06:36:12;4.00;;;3.90;;
26820;SDS011;37186;51.394;5.454;2022-11-10T06:39:13;4.00;;;3.90;;
26820;SDS011;37186;51.394;5.454;2022-11-10T06:42:13;4.10;;;4.00;;
26820;SDS011;37186;51.394;5.454;2022-11-10T06:45:14;4.20;;;4.10;;
26820;SDS011;37186;51.394;5.454;2022-11-10T06:48:14;4.20;;;4.10;;
26820;SDS011;37186;51.394;5.454;2022-11-10T06:51:15;4.00;;;3.90;;
26820;SDS011;37186;51.394;5.454;2022-11-10T06:54:16;4.27;;;4.17;;
26820;SDS011;37186;51.394;5.454;2022-11-10T06:57:17;3.90;;;3.80;;
26820;SDS011;37186;51.394;5.454;2022-11-10T07:00:17;4.30;;;4.20;;
26820;SDS011;37186;51.394;5.454;2022-11-10T07:03:18;4.30;;;4.20;;
26820;SDS011;37186;51.394;5.454;2022-11-10T07:06:19;4.10;;;4.00;;
26820;SDS011;37186;51.394;5.454;2022-11-10T07:09:20;3.90;;;3.80;;
26820;SDS011;37186;51.394;5.454;2022-11-10T07:12:20;4.40;;;4.30;;
26820;SDS011;37186;51.394;5.454;2022-11-10T07:15:21;4.17;;;4.07;;
26820;SDS011;37186;51.394;5.454;2022-11-10T07:18:21;4.00;;;3.90;;
26820;SDS011;37186;51.394;5.454;2022-11-10T07:21:22;3.83;;;3.73;;
26820;SDS011;37186;51.394;5.454;2022-11-10T07:24:23;4.10;;;4.00;;
26820;SDS011;37186;51.394;5.454;2022-11-10T07:27:23;4.00;;;3.90;;
26820;SDS011;37186;51.394;5.454;2022-11-10T07:30:24;4.03;;;3.93;;
26820;SDS011;37186;51.394;5.454;2022-11-10T07:33:25;4.10;;;4.00;;
26820;SDS011;37186;51.394;5.454;2022-11-10T07:36:26;3.93;;;3.83;;
26820;SDS011;37186;51.394;5.454;2022-11-10T07:39:27;4.00;;;3.90;;
26820;SDS011;37186;51.394;5.454;2022-11-10T07:42:28;4.10;;;4.00;;
26820;SDS011;37186;51.394;5.454;2022-11-10T07:45:29;4.10;;;4.00;;
26820;SDS011;37186;51.394;5.454;2022-11-10T07:48:31;4.13;;;4.03;;
26820;SDS011;37186;51.394;5.454;2022-11-10T07:51:31;4.13;;;4.03;;
26820;SDS011;37186;51.394;5.454;2022-11-10T07:54:32;4.20;;;4.10;;
26820;SDS011;37186;51.394;5.454;2022-11-10T07:57:32;4.10;;;4.00;;
26820;SDS011;37186;51.394;5.454;2022-11-10T08:00:33;4.27;;;4.17;;
26820;SDS011;37186;51.394;5.454;2022-11-10T08:03:35;4.20;;;4.10;;
26820;SDS011;37186;51.394;5.454;2022-11-10T08:06:35;3.97;;;3.87;;
26820;SDS011;37186;51.394;5.454;2022-11-10T08:09:36;4.10;;;4.00;;
26820;SDS011;37186;51.394;5.454;2022-11-10T08:12:36;3.90;;;3.80;;
26820;SDS011;37186;51.394;5.454;2022-11-10T08:15:37;3.93;;;3.83;;
26820;SDS011;37186;51.394;5.454;2022-11-10T08:18:38;3.90;;;3.80;;
26820;SDS011;37186;51.394;5.454;2022-11-10T08:21:38;3.90;;;3.80;;
26820;SDS011;37186;51.394;5.454;2022-11-10T08:24:39;3.93;;;3.83;;
26820;SDS011;37186;51.394;5.454;2022-11-10T08:27:39;3.80;;;3.70;;
26820;SDS011;37186;51.394;5.454;2022-11-10T08:30:41;3.90;;;3.80;;
26820;SDS011;37186;51.394;5.454;2022-11-10T08:33:42;3.90;;;3.80;;
26820;SDS011;37186;51.394;5.454;2022-11-10T08:36:43;3.93;;;3.83;;
26820;SDS011;37186;51.394;5.454;2022-11-10T08:39:44;3.50;;;3.40;;
26820;SDS011;37186;51.394;5.454;2022-11-10T08:42:44;3.50;;;3.40;;
26820;SDS011;37186;51.394;5.454;2022-11-10T08:45:46;3.63;;;3.53;;
26820;SDS011;37186;51.394;5.454;2022-11-10T08:48:46;3.57;;;3.47;;
26820;SDS011;37186;51.394;5.454;2022-11-10T08:51:47;3.50;;;3.40;;
26820;SDS011;37186;51.394;5.454;2022-11-10T08:54:47;3.50;;;3.40;;
26820;SDS011;37186;51.394;5.454;2022-11-10T08:57:48;3.43;;;3.33;;
26820;SDS011;37186;51.394;5.454;2022-11-10T09:00:48;3.50;;;3.40;;
26820;SDS011;37186;51.394;5.454;2022-11-10T09:03:49;3.33;;;3.23;;
26820;SDS011;37186;51.394;5.454;2022-11-10T09:06:50;3.30;;;3.20;;
26820;SDS011;37186;51.394;5.454;2022-11-10T09:09:50;3.30;;;3.20;;
26820;SDS011;37186;51.394;5.454;2022-11-10T09:12:51;3.30;;;3.20;;
26820;SDS011;37186;51.394;5.454;2022-11-10T09:15:51;3.23;;;3.13;;
26820;SDS011;37186;51.394;5.454;2022-11-10T09:18:52;3.30;;;3.20;;
26820;SDS011;37186;51.394;5.454;2022-11-10T09:21:52;3.27;;;3.17;;
26820;SDS011;37186;51.394;5.454;2022-11-10T09:24:53;3.50;;;3.40;;
26820;SDS011;37186;51.394;5.454;2022-11-10T09:27:53;3.30;;;3.20;;
26820;SDS011;37186;51.394;5.454;2022-11-10T09:30:54;3.10;;;3.00;;
26820;SDS011;37186;51.394;5.454;2022-11-10T09:33:54;3.30;;;3.20;;
26820;SDS011;37186;51.394;5.454;2022-11-10T09:36:55;3.20;;;3.10;;
26820;SDS011;37186;51.394;5.454;2022-11-10T09:39:56;3.20;;;3.10;;
26820;SDS011;37186;51.394;5.454;2022-11-10T09:42:56;3.07;;;2.97;;
26820;SDS011;37186;51.394;5.454;2022-11-10T09:46:00;3.30;;;3.20;;
26820;SDS011;37186;51.394;5.454;2022-11-10T09:49:21;3.17;;;3.07;;
26820;SDS011;37186;51.394;5.454;2022-11-10T09:52:34;3.17;;;3.07;;
26820;SDS011;37186;51.394;5.454;2022-11-10T09:55:37;3.20;;;3.10;;
26820;SDS011;37186;51.394;5.454;2022-11-10T09:58:44;3.40;;;3.30;;
26820;SDS011;37186;51.394;5.454;2022-11-10T10:14:58;3.20;;;3.10;;
26820;SDS011;37186;51.394;5.454;2022-11-10T10:24:56;3.23;;;3.13;;
26820;SDS011;37186;51.394;5.454;2022-11-10T10:31:41;3.47;;;3.37;;
26820;SDS011;37186;51.394;5.454;2022-11-10T10:34:46;3.53;;;3.43;;
26820;SDS011;37186;51.394;5.454;2022-11-10T10:37:47;3.37;;;3.27;;
26820;SDS011;37186;51.394;5.454;2022-11-10T10:40:52;3.47;;;3.37;;
26820;SDS011;37186;51.394;5.454;2022-11-10T10:43:59;3.67;;;3.57;;
26820;SDS011;37186;51.394;5.454;2022-11-10T10:47:01;3.53;;;3.43;;
26820;SDS011;37186;51.394;5.454;2022-11-10T10:53:24;3.97;;;3.87;;
26820;SDS011;37186;51.394;5.454;2022-11-10T10:56:26;3.87;;;3.77;;
26820;SDS011;37186;51.394;5.454;2022-11-10T10:59:31;4.07;;;3.97;;
26820;SDS011;37186;51.394;5.454;2022-11-10T11:02:33;3.77;;;3.67;;
26820;SDS011;37186;51.394;5.454;2022-11-10T11:05:33;3.93;;;3.83;;
26820;SDS011;37186;51.394;5.454;2022-11-10T11:08:34;4.07;;;3.97;;
26820;SDS011;37186;51.394;5.454;2022-11-10T11:11:35;4.03;;;3.93;;
26820;SDS011;37186;51.394;5.454;2022-11-10T11:14:37;4.20;;;4.10;;
26820;SDS011;37186;51.394;5.454;2022-11-10T11:17:38;4.53;;;4.43;;
26820;SDS011;37186;51.394;5.454;2022-11-10T11:20:45;4.57;;;4.47;;
26820;SDS011;37186;51.394;5.454;2022-11-10T11:47:39;4.88;;;4.78;;
26820;SDS011;37186;51.394;5.454;2022-11-10T11:51:00;4.85;;;4.75;;
26820;SDS011;37186;51.394;5.454;2022-11-10T11:54:12;5.47;;;5.38;;
26820;SDS011;37186;51.394;5.454;2022-11-10T11:57:41;5.30;;;5.20;;
26820;SDS011;37186;51.394;5.454;2022-11-10T12:01:06;5.22;;;5.13;;
26820;SDS011;37186;51.394;5.454;2022-11-10T12:21:36;5.22;;;5.13;;
26820;SDS011;37186;51.394;5.454;2022-11-10T12:24:57;5.15;;;5.05;;
26820;SDS011;37186;51.394;5.454;2022-11-10T12:28:17;5.40;;;5.30;;
26820;SDS011;37186;51.394;5.454;2022-11-10T12:31:25;5.07;;;4.97;;
26820;SDS011;37186;51.394;5.454;2022-11-10T12:34:37;5.25;;;5.15;;
26820;SDS011;37186;51.394;5.454;2022-11-10T12:37:43;5.25;;;5.15;;
26820;SDS011;37186;51.394;5.454;2022-11-10T12:40:56;5.30;;;5.20;;
26820;SDS011;37186;51.394;5.454;2022-11-10T12:47:16;5.03;;;4.93;;
26820;SDS011;37186;51.394;5.454;2022-11-10T12:53:42;4.80;;;4.70;;
26820;SDS011;37186;51.394;5.454;2022-11-10T12:56:47;4.75;;;4.65;;
26820;SDS011;37186;51.394;5.454;2022-11-10T12:59:56;5.28;;;5.18;;
26820;SDS011;37186;51.394;5.454;2022-11-10T13:03:05;5.07;;;4.97;;
26820;SDS011;37186;51.394;5.454;2022-11-10T13:06:33;5.05;;;4.95;;
26820;SDS011;37186;51.394;5.454;2022-11-10T13:09:36;5.40;;;5.30;;
26820;SDS011;37186;51.394;5.454;2022-11-10T13:12:56;5.47;;;5.38;;
26820;SDS011;37186;51.394;5.454;2022-11-10T13:16:02;5.32;;;5.22;;
26820;SDS011;37186;51.394;5.454;2022-11-10T13:19:04;5.85;;;5.68;;
26820;SDS011;37186;51.394;5.454;2022-11-10T13:22:10;5.57;;;5.47;;
26820;SDS011;37186;51.394;5.454;2022-11-10T13:26:00;5.35;;;5.25;;
26820;SDS011;37186;51.394;5.454;2022-11-10T13:28:57;5.57;;;5.47;;
26820;SDS011;37186;51.394;5.454;2022-11-10T13:41:31;5.68;;;5.55;;
26820;SDS011;37186;51.394;5.454;2022-11-10T13:44:34;5.70;;;5.57;;
26820;SDS011;37186;51.394;5.454;2022-11-10T13:47:45;5.75;;;5.60;;
26820;SDS011;37186;51.394;5.454;2022-11-10T13:51:02;5.43;;;5.32;;
26820;SDS011;37186;51.394;5.454;2022-11-10T13:57:35;5.35;;;5.25;;
26820;SDS011;37186;51.394;5.454;2022-11-10T14:00:38;6.03;;;5.82;;
26820;SDS011;37186;51.394;5.454;2022-11-10T14:06:49;5.50;;;5.40;;
26820;SDS011;37186;51.394;5.454;2022-11-10T14:09:54;5.53;;;5.43;;
26820;SDS011;37186;51.394;5.454;2022-11-10T14:13:27;5.68;;;5.57;;
26820;SDS011;37186;51.394;5.454;2022-11-10T14:16:31;5.35;;;5.25;;
26820;SDS011;37186;51.394;5.454;2022-11-10T14:19:38;5.95;;;5.75;;
26820;SDS011;37186;51.394;5.454;2022-11-10T14:22:42;5.75;;;5.63;;
26820;SDS011;37186;51.394;5.454;2022-11-10T14:25:43;5.28;;;5.18;;
26820;SDS011;37186;51.394;5.454;2022-11-10T14:28:45;5.60;;;5.50;;
26820;SDS011;37186;51.394;5.454;2022-11-10T14:31:46;5.85;;;5.65;;
26820;SDS011;37186;51.394;5.454;2022-11-10T14:34:47;5.13;;;5.03;;
26820;SDS011;37186;51.394;5.454;2022-11-10T14:37:49;5.32;;;5.22;;
26820;SDS011;37186;51.394;5.454;2022-11-10T14:40:57;5.50;;;5.40;;
26820;SDS011;37186;51.394;5.454;2022-11-10T14:44:01;5.45;;;5.35;;
26820;SDS011;37186;51.394;5.454;2022-11-10T14:47:23;5.10;;;5.00;;
26820;SDS011;37186;51.394;5.454;2022-11-10T14:50:32;4.95;;;4.85;;
26820;SDS011;37186;51.394;5.454;2022-11-10T14:53:35;5.18;;;5.07;;
26820;SDS011;37186;51.394;5.454;2022-11-10T14:56:38;6.00;;;5.80;;
26820;SDS011;37186;51.394;5.454;2022-11-10T14:59:39;5.53;;;5.43;;
26820;SDS011;37186;51.394;5.454;2022-11-10T15:02:40;5.30;;;5.20;;
26820;SDS011;37186;51.394;5.454;2022-11-10T15:05:40;5.35;;;5.25;;
26820;SDS011;37186;51.394;5.454;2022-11-10T15:08:42;5.47;;;5.38;;
26820;SDS011;37186;51.394;5.454;2022-11-10T15:11:50;5.57;;;5.47;;
26820;SDS011;37186;51.394;5.454;2022-11-10T15:14:56;5.28;;;5.18;;
26820;SDS011;37186;51.394;5.454;2022-11-10T15:17:58;5.03;;;4.93;;
26820;SDS011;37186;51.394;5.454;2022-11-10T15:21:02;5.65;;;5.55;;
26820;SDS011;37186;51.394;5.454;2022-11-10T15:24:04;5.40;;;5.30;;
26820;SDS011;37186;51.394;5.454;2022-11-10T15:27:08;5.30;;;5.20;;
26820;SDS011;37186;51.394;5.454;2022-11-10T15:30:21;5.28;;;5.18;;
26820;SDS011;37186;51.394;5.454;2022-11-10T15:33:28;5.18;;;5.07;;
26820;SDS011;37186;51.394;5.454;2022-11-10T15:36:32;5.72;;;5.57;;
26820;SDS011;37186;51.394;5.454;2022-11-10T15:39:34;5.45;;;5.35;;
26820;SDS011;37186;51.394;5.454;2022-11-10T15:42:35;5.97;;;5.78;;
26820;SDS011;37186;51.394;5.454;2022-11-10T15:45:36;5.45;;;5.35;;
26820;SDS011;37186;51.394;5.454;2022-11-10T15:48:38;5.40;;;5.30;;
26820;SDS011;37186;51.394;5.454;2022-11-10T15:51:41;6.00;;;5.80;;
26820;SDS011;37186;51.394;5.454;2022-11-10T15:54:41;5.97;;;5.78;;
26820;SDS011;37186;51.394;5.454;2022-11-10T15:57:42;5.95;;;5.75;;
26820;SDS011;37186;51.394;5.454;2022-11-10T16:00:43;6.07;;;5.88;;
26820;SDS011;37186;51.394;5.454;2022-11-10T16:03:43;5.97;;;5.78;;
26820;SDS011;37186;51.394;5.454;2022-11-10T16:06:45;6.35;;;6.15;;
26820;SDS011;37186;51.394;5.454;2022-11-10T16:09:45;6.28;;;6.07;;
26820;SDS011;37186;51.394;5.454;2022-11-10T16:12:46;6.38;;;6.18;;
26820;SDS011;37186;51.394;5.454;2022-11-10T16:15:46;6.35;;;6.15;;
26820;SDS011;37186;51.394;5.454;2022-11-10T16:18:47;6.13;;;5.93;;
26820;SDS011;37186;51.394;5.454;2022-11-10T16:21:47;5.80;;;5.65;;
26820;SDS011;37186;51.394;5.454;2022-11-10T16:24:48;5.88;;;5.70;;
26820;SDS011;37186;51.394;5.454;2022-11-10T16:27:49;5.95;;;5.78;;
26820;SDS011;37186;51.394;5.454;2022-11-10T16:30:50;5.45;;;5.35;;
26820;SDS011;37186;51.394;5.454;2022-11-10T16:33:51;5.20;;;5.10;;
26820;SDS011;37186;51.394;5.454;2022-11-10T16:36:51;5.35;;;5.25;;
26820;SDS011;37186;51.394;5.454;2022-11-10T16:39:52;5.35;;;5.25;;
26820;SDS011;37186;51.394;5.454;2022-11-10T16:42:53;5.05;;;4.95;;
26820;SDS011;37186;51.394;5.454;2022-11-10T16:45:54;5.00;;;4.90;;
26820;SDS011;37186;51.394;5.454;2022-11-10T16:48:57;5.00;;;4.90;;
26820;SDS011;37186;51.394;5.454;2022-11-10T16:52:03;4.97;;;4.87;;
26820;SDS011;37186;51.394;5.454;2022-11-10T16:55:10;4.88;;;4.78;;
26820;SDS011;37186;51.394;5.454;2022-11-10T16:58:12;4.83;;;4.73;;
26820;SDS011;37186;51.394;5.454;2022-11-10T17:01:20;4.83;;;4.73;;
26820;SDS011;37186;51.394;5.454;2022-11-10T17:04:24;4.55;;;4.45;;
26820;SDS011;37186;51.394;5.454;2022-11-10T17:07:25;4.57;;;4.47;;
26820;SDS011;37186;51.394;5.454;2022-11-10T17:10:27;4.72;;;4.63;;
26820;SDS011;37186;51.394;5.454;2022-11-10T17:13:27;5.00;;;4.90;;
26820;SDS011;37186;51.394;5.454;2022-11-10T17:16:29;4.60;;;4.50;;
26820;SDS011;37186;51.394;5.454;2022-11-10T17:19:32;4.93;;;4.82;;
26820;SDS011;37186;51.394;5.454;2022-11-10T17:22:33;4.85;;;4.75;;
26820;SDS011;37186;51.394;5.454;2022-11-10T17:25:35;4.88;;;4.78;;
26820;SDS011;37186;51.394;5.454;2022-11-10T17:28:35;4.93;;;4.82;;
26820;SDS011;37186;51.394;5.454;2022-11-10T17:31:36;4.80;;;4.70;;
26820;SDS011;37186;51.394;5.454;2022-11-10T17:34:37;4.72;;;4.63;;
26820;SDS011;37186;51.394;5.454;2022-11-10T17:37:37;4.53;;;4.43;;
26820;SDS011;37186;51.394;5.454;2022-11-10T17:40:40;4.68;;;4.57;;
26820;SDS011;37186;51.394;5.454;2022-11-10T17:43:45;4.85;;;4.75;;
26820;SDS011;37186;51.394;5.454;2022-11-10T17:46:46;4.57;;;4.47;;
26820;SDS011;37186;51.394;5.454;2022-11-10T17:49:46;4.72;;;4.63;;
26820;SDS011;37186;51.394;5.454;2022-11-10T17:52:47;4.70;;;4.60;;
26820;SDS011;37186;51.394;5.454;2022-11-10T17:55:48;4.88;;;4.78;;
26820;SDS011;37186;51.394;5.454;2022-11-10T17:58:49;4.67;;;4.57;;
26820;SDS011;37186;51.394;5.454;2022-11-10T18:01:52;4.70;;;4.60;;
26820;SDS011;37186;51.394;5.454;2022-11-10T18:04:52;4.80;;;4.70;;
26820;SDS011;37186;51.394;5.454;2022-11-10T18:07:53;5.00;;;4.90;;
26820;SDS011;37186;51.394;5.454;2022-11-10T18:10:54;4.90;;;4.80;;
26820;SDS011;37186;51.394;5.454;2022-11-10T18:13:54;4.80;;;4.70;;
26820;SDS011;37186;51.394;5.454;2022-11-10T18:16:55;4.90;;;4.80;;
26820;SDS011;37186;51.394;5.454;2022-11-10T18:19:55;4.95;;;4.85;;
26820;SDS011;37186;51.394;5.454;2022-11-10T18:22:56;4.90;;;4.80;;
26820;SDS011;37186;51.394;5.454;2022-11-10T18:26:06;5.10;;;5.00;;
26820;SDS011;37186;51.394;5.454;2022-11-10T18:29:07;4.67;;;4.57;;
26820;SDS011;37186;51.394;5.454;2022-11-10T18:32:08;4.63;;;4.53;;
26820;SDS011;37186;51.394;5.454;2022-11-10T18:35:08;4.90;;;4.80;;
26820;SDS011;37186;51.394;5.454;2022-11-10T18:38:10;4.90;;;4.80;;
26820;SDS011;37186;51.394;5.454;2022-11-10T18:41:12;4.77;;;4.67;;
26820;SDS011;37186;51.394;5.454;2022-11-10T18:44:31;4.80;;;4.70;;
26820;SDS011;37186;51.394;5.454;2022-11-10T18:47:36;4.60;;;4.50;;
26820;SDS011;37186;51.394;5.454;2022-11-10T18:50:36;4.80;;;4.70;;
26820;SDS011;37186;51.394;5.454;2022-11-10T18:53:37;4.70;;;4.60;;
26820;SDS011;37186;51.394;5.454;2022-11-10T18:56:38;4.63;;;4.53;;
26820;SDS011;37186;51.394;5.454;2022-11-10T18:59:39;4.73;;;4.63;;
26820;SDS011;37186;51.394;5.454;2022-11-10T19:02:40;4.47;;;4.37;;
26820;SDS011;37186;51.394;5.454;2022-11-10T19:05:41;4.70;;;4.60;;
26820;SDS011;37186;51.394;5.454;2022-11-10T19:08:42;4.43;;;4.33;;
26820;SDS011;37186;51.394;5.454;2022-11-10T19:11:42;4.50;;;4.40;;
26820;SDS011;37186;51.394;5.454;2022-11-10T19:14:43;4.50;;;4.40;;
26820;SDS011;37186;51.394;5.454;2022-11-10T19:17:43;4.30;;;4.20;;
26820;SDS011;37186;51.394;5.454;2022-11-10T19:20:44;4.47;;;4.37;;
26820;SDS011;37186;51.394;5.454;2022-11-10T19:23:45;4.20;;;4.10;;
26820;SDS011;37186;51.394;5.454;2022-11-10T19:26:49;4.10;;;4.00;;
26820;SDS011;37186;51.394;5.454;2022-11-10T19:29:50;4.20;;;4.10;;
26820;SDS011;37186;51.394;5.454;2022-11-10T19:32:50;4.33;;;4.23;;
26820;SDS011;37186;51.394;5.454;2022-11-10T19:35:51;4.43;;;4.33;;
26820;SDS011;37186;51.394;5.454;2022-11-10T19:38:52;4.27;;;4.17;;
26820;SDS011;37186;51.394;5.454;2022-11-10T19:41:53;4.17;;;4.07;;
26820;SDS011;37186;51.394;5.454;2022-11-10T19:44:54;4.27;;;4.17;;
26820;SDS011;37186;51.394;5.454;2022-11-10T19:47:55;4.20;;;4.10;;
26820;SDS011;37186;51.394;5.454;2022-11-10T19:50:56;4.30;;;4.20;;
26820;SDS011;37186;51.394;5.454;2022-11-10T19:53:59;4.30;;;4.20;;
26820;SDS011;37186;51.394;5.454;2022-11-10T19:57:01;4.40;;;4.30;;